createdAt,value
2023-01-13T00:00:36.471Z,100605.16
2023-01-13T00:03:07.262Z,100612.47
2023-01-13T00:05:35.625Z,100611.81
2023-01-13T00:08:04.967Z,100612.06
2023-01-13T00:10:33.677Z,100606.91
2023-01-13T00:13:05.480Z,100607.13
2023-01-13T00:15:34.275Z,100607.25
2023-01-13T00:18:02.502Z,100606.63
2023-01-13T00:20:31.046Z,100605.09
2023-01-13T00:23:00.159Z,100596.31
2023-01-13T00:25:28.261Z,100593.84
2023-01-13T00:27:56.319Z,100592.25
2023-01-13T00:30:25.927Z,100587.09
2023-01-13T00:32:54.177Z,100587.31
2023-01-13T00:35:22.320Z,100599.16
2023-01-13T00:37:50.407Z,100593.97
2023-01-13T00:40:18.952Z,100598.59
2023-01-13T00:43:04.868Z,100596.16
2023-01-13T00:45:34.295Z,100602.59
2023-01-13T00:48:02.403Z,100604.53
2023-01-13T00:50:31.265Z,100602.19
2023-01-13T00:53:01.232Z,100598.75
2023-01-13T00:55:32.012Z,100603.38
2023-01-13T00:58:03.513Z,100598.22
2023-01-13T01:00:31.972Z,100599.28
2023-01-13T01:03:01.670Z,100603.06
2023-01-13T01:05:29.793Z,100602.31
2023-01-13T01:07:57.942Z,100596.16
2023-01-13T01:10:26.700Z,100593.69
2023-01-13T01:12:54.851Z,100583.91
2023-01-13T01:15:22.894Z,100592.94
2023-01-13T01:17:51.032Z,100583.38
2023-01-13T01:20:24.351Z,100581.66
2023-01-13T01:22:55.476Z,100580.91
2023-01-13T01:25:23.625Z,100577.50
2023-01-13T01:27:52.080Z,100577.50
2023-01-13T01:30:20.610Z,100577.72
2023-01-13T01:32:48.702Z,100573.41
2023-01-13T01:35:16.880Z,100574.47
2023-01-13T01:37:46.621Z,100578.13
2023-01-13T01:40:15.205Z,100567.50
2023-01-13T01:43:00.947Z,100568.56
2023-01-13T01:45:31.618Z,100565.03
2023-01-13T01:48:03.713Z,100559.88
2023-01-13T01:50:32.771Z,100557.31
2023-01-13T01:53:09.232Z,100557.44
2023-01-13T01:55:39.377Z,100565.59
2023-01-13T01:58:12.842Z,100562.13
2023-01-13T02:00:40.980Z,100550.66
2023-01-13T02:03:10.704Z,100552.59
2023-01-13T02:05:39.647Z,100547.34
2023-01-13T02:08:10.269Z,100547.44
2023-01-13T02:10:39.314Z,100546.69
2023-01-13T02:13:11.816Z,100546.69
2023-01-13T02:15:44.787Z,100552.25
2023-01-13T02:18:42.396Z,100556.88
2023-01-13T02:21:36.666Z,100546.38
2023-01-13T02:24:51.030Z,100548.28
2023-01-13T02:28:03.634Z,100553.75
2023-01-13T02:31:00.914Z,100537.78
2023-01-13T02:33:43.394Z,100529.00
2023-01-13T02:36:21.198Z,100532.63
2023-01-13T02:38:53.828Z,100536.28
2023-01-13T02:41:45.835Z,100534.66
2023-01-13T02:44:19.318Z,100540.13
2023-01-13T02:46:54.011Z,100531.34
2023-01-13T02:49:33.677Z,100529.63
2023-01-13T02:52:10.924Z,100528.88
2023-01-13T02:54:43.251Z,100530.69
2023-01-13T02:57:14.087Z,100530.81
2023-01-13T02:59:44.211Z,100524.66
2023-01-13T03:02:17.439Z,100519.31
2023-01-13T03:04:49.838Z,100520.38
2023-01-13T03:07:34.722Z,100520.50
2023-01-13T03:10:11.482Z,100512.69
2023-01-13T03:12:50.108Z,100520.72
2023-01-13T03:15:25.545Z,100512.00
2023-01-13T03:18:03.228Z,100508.47
2023-01-13T03:20:38.167Z,100505.78
2023-01-13T03:23:16.484Z,100508.59
2023-01-13T03:25:52.183Z,100508.81
2023-01-13T03:28:25.139Z,100514.16
2023-01-13T03:30:59.998Z,100505.34
2023-01-13T03:33:33.648Z,100499.34
2023-01-13T03:36:06.801Z,100504.59
2023-01-13T03:38:39.343Z,100499.34
2023-01-13T03:41:10.847Z,100501.28
2023-01-13T03:44:03.463Z,100498.72
2023-01-13T03:46:38.319Z,100487.13
2023-01-13T03:49:10.017Z,100496.13
2023-01-13T03:51:43.912Z,100490.00
2023-01-13T03:54:15.574Z,100489.25
2023-01-13T03:56:47.019Z,100489.25
2023-01-13T03:59:19.592Z,100496.53
2023-01-13T04:01:53.042Z,100489.47
2023-01-13T04:04:26.961Z,100501.25
2023-01-13T04:07:04.466Z,100494.16
2023-01-13T04:09:38.420Z,100499.63
2023-01-13T04:12:11.988Z,100508.63
2023-01-13T04:14:41.016Z,100499.72
2023-01-13T04:17:09.091Z,100496.41
2023-01-13T04:19:39.079Z,100494.69
2023-01-13T04:22:07.551Z,100497.38
2023-01-13T04:24:37.209Z,100494.81
2023-01-13T04:27:06.225Z,100503.78
2023-01-13T04:29:34.836Z,100506.56
2023-01-13T04:32:02.981Z,100507.50
2023-01-13T04:34:31.204Z,100502.25
2023-01-13T04:37:00.729Z,100506.75
2023-01-13T04:39:28.796Z,100513.81
2023-01-13T04:41:59.666Z,100509.25
2023-01-13T04:44:27.834Z,100506.16
2023-01-13T04:46:56.066Z,100505.53
2023-01-13T04:49:24.223Z,100511.03
2023-01-13T04:51:52.749Z,100512.88
2023-01-13T04:54:22.270Z,100512.03
2023-01-13T04:56:50.371Z,100513.13
2023-01-13T04:59:18.437Z,100508.84
2023-01-13T05:01:46.631Z,100507.97
2023-01-13T05:04:15.586Z,100515.25
2023-01-13T05:06:43.941Z,100507.41
2023-01-13T05:09:13.476Z,100508.34
2023-01-13T05:12:00.422Z,100507.69
2023-01-13T05:14:46.300Z,100506.94
2023-01-13T05:17:20.170Z,100507.00
2023-01-13T05:19:48.705Z,100517.09
2023-01-13T05:22:34.708Z,100521.56
2023-01-13T05:25:20.593Z,100513.78
2023-01-13T05:27:50.297Z,100514.72
2023-01-13T05:30:23.406Z,100522.94
2023-01-13T05:32:51.549Z,100524.19
2023-01-13T05:35:19.930Z,100527.16
2023-01-13T05:37:48.636Z,100526.94
2023-01-13T05:40:37.115Z,100524.00
2023-01-13T05:43:22.342Z,100523.88
2023-01-13T05:45:52.642Z,100515.69
2023-01-13T05:48:22.994Z,100519.97
2023-01-13T05:50:51.633Z,100519.88
2023-01-13T05:53:19.789Z,100526.00
2023-01-13T05:55:48.081Z,100519.53
2023-01-13T05:58:18.972Z,100518.22
2023-01-13T06:00:47.555Z,100524.00
2023-01-13T06:03:17.040Z,100519.25
2023-01-13T06:05:45.087Z,100520.97
2023-01-13T06:08:13.568Z,100525.34
2023-01-13T06:10:42.198Z,100530.00
2023-01-13T06:13:10.335Z,100523.78
2023-01-13T06:15:39.785Z,100524.84
2023-01-13T06:18:07.935Z,100521.63
2023-01-13T06:20:36.698Z,100541.56
2023-01-13T06:23:05.169Z,100529.31
2023-01-13T06:25:41.923Z,100526.00
2023-01-13T06:28:10.556Z,100528.16
2023-01-13T06:30:43.301Z,100534.75
2023-01-13T06:33:15.026Z,100531.56
2023-01-13T06:35:45.642Z,100532.78
2023-01-13T06:38:18.636Z,100526.88
2023-01-13T06:40:46.914Z,100528.94
2023-01-13T06:43:17.454Z,100531.13
2023-01-13T06:45:50.325Z,100535.84
2023-01-13T06:48:20.052Z,100538.03
2023-01-13T06:50:48.192Z,100542.75
2023-01-13T06:53:16.314Z,100538.72
2023-01-13T06:55:44.451Z,100549.66
2023-01-13T06:58:12.564Z,100544.66
2023-01-13T07:00:40.788Z,100546.72
2023-01-13T07:03:12.585Z,100544.47
2023-01-13T07:05:41.902Z,100547.38
2023-01-13T07:08:11.237Z,100551.25
2023-01-13T07:10:39.458Z,100548.78
2023-01-13T07:13:25.235Z,100553.44
2023-01-13T07:15:57.919Z,100557.28
2023-01-13T07:18:28.632Z,100562.03
2023-01-13T07:20:58.317Z,100551.59
2023-01-13T07:23:28.080Z,100550.00
2023-01-13T07:25:57.122Z,100543.16
2023-01-13T07:28:25.750Z,100554.00
2023-01-13T07:30:54.147Z,100554.19
2023-01-13T07:33:22.976Z,100554.28
2023-01-13T07:35:57.813Z,100555.38
2023-01-13T07:38:26.203Z,100560.94
2023-01-13T07:40:54.330Z,100547.63
2023-01-13T07:43:33.671Z,100553.00
2023-01-13T07:46:04.694Z,100559.03
2023-01-13T07:48:35.462Z,100562.13
2023-01-13T07:51:07.359Z,100566.09
2023-01-13T07:53:36.093Z,100564.59
2023-01-13T07:56:06.115Z,100562.66
2023-01-13T07:58:36.009Z,100551.47
2023-01-13T08:01:08.740Z,100561.75
2023-01-13T08:03:37.123Z,100564.97
2023-01-13T08:06:07.291Z,100574.44
2023-01-13T08:08:35.467Z,100572.47
2023-01-13T08:11:06.315Z,100579.44
2023-01-13T08:13:34.702Z,100581.28
2023-01-13T08:16:04.721Z,100583.09
2023-01-13T08:18:33.636Z,100580.66
2023-01-13T08:21:04.031Z,100578.06
2023-01-13T08:23:33.711Z,100586.22
2023-01-13T08:26:02.794Z,100582.19
2023-01-13T08:28:32.156Z,100592.06
2023-01-13T08:31:01.663Z,100595.91
2023-01-13T08:33:30.350Z,100598.72
2023-01-13T08:35:58.571Z,100597.13
2023-01-13T08:38:26.875Z,100597.34
2023-01-13T08:40:56.415Z,100595.84
2023-01-13T08:43:24.517Z,100595.94
2023-01-13T08:46:00.410Z,100598.00
2023-01-13T08:48:31.466Z,100594.78
2023-01-13T08:51:04.409Z,100595.75
2023-01-13T08:53:32.800Z,100602.19
2023-01-13T08:56:02.442Z,100597.88
2023-01-13T08:58:30.609Z,100602.50
2023-01-13T09:00:58.911Z,100601.84
2023-01-13T09:03:27.193Z,100606.47
2023-01-13T09:05:55.326Z,100599.47
2023-01-13T09:08:23.412Z,100597.88
2023-01-13T09:10:51.838Z,100600.78
2023-01-13T09:13:21.809Z,100599.19
2023-01-13T09:15:49.938Z,100611.81
2023-01-13T09:18:18.029Z,100611.19
2023-01-13T09:20:46.068Z,100606.91
2023-01-13T09:23:14.232Z,100610.56
2023-01-13T09:25:42.420Z,100602.69
2023-01-13T09:28:10.529Z,100600.97
2023-01-13T09:30:40.124Z,100600.47
2023-01-13T09:33:25.530Z,100605.81
2023-01-13T09:35:53.699Z,100601.63
2023-01-13T09:38:21.843Z,100613.31
2023-01-13T09:40:51.099Z,100604.53
2023-01-13T09:43:42.115Z,100604.75
2023-01-13T09:46:32.719Z,100600.44
2023-01-13T09:49:03.744Z,100598.81
2023-01-13T09:51:37.469Z,100595.50
2023-01-13T09:54:13.195Z,100596.53
2023-01-13T09:56:41.418Z,100594.84
2023-01-13T09:59:12.235Z,100600.41
2023-01-13T10:01:49.624Z,100602.34
2023-01-13T10:04:17.749Z,100598.91
2023-01-13T10:06:49.405Z,100591.06
2023-01-13T10:09:23.895Z,100591.16
2023-01-13T10:12:14.420Z,100594.94
2023-01-13T10:14:46.859Z,100588.81
2023-01-13T10:17:29.940Z,100595.16
2023-01-13T10:20:13.297Z,100593.50
2023-01-13T10:22:54.292Z,100591.03
2023-01-13T10:25:29.183Z,100592.97
2023-01-13T10:28:09.070Z,100595.84
2023-01-13T10:30:40.311Z,100595.94
2023-01-13T10:33:14.007Z,100592.53
2023-01-13T10:35:57.573Z,100593.50
2023-01-13T10:38:28.379Z,100588.34
2023-01-13T10:40:59.024Z,100578.59
2023-01-13T10:43:28.716Z,100572.44
2023-01-13T10:46:06.248Z,100564.41
2023-01-13T10:48:43.672Z,100569.00
2023-01-13T10:51:26.203Z,100564.63
2023-01-13T10:53:58.275Z,100566.56
2023-01-13T10:56:29.814Z,100555.09
2023-01-13T10:59:15.362Z,100549.72
2023-01-13T11:01:54.749Z,100533.72
2023-01-13T11:04:31.073Z,100547.97
2023-01-13T11:06:59.831Z,100536.50
2023-01-13T11:09:30.221Z,100539.19
2023-01-13T11:11:59.499Z,100534.91
2023-01-13T11:14:39.872Z,100528.81
2023-01-13T11:17:22.502Z,100533.31
2023-01-13T11:19:59.320Z,100527.19
2023-01-13T11:22:33.266Z,100520.09
2023-01-13T11:25:03.858Z,100514.84
2023-01-13T11:27:41.367Z,100511.31
2023-01-13T11:30:24.036Z,100514.94
2023-01-13T11:33:04.832Z,100511.53
2023-01-13T11:35:41.722Z,100513.44
2023-01-13T11:38:15.719Z,100513.44
2023-01-13T11:40:49.673Z,100512.59
2023-01-13T11:43:30.494Z,100511.75
2023-01-13T11:46:00.258Z,100514.50
2023-01-13T11:48:31.463Z,100504.75
2023-01-13T11:51:11.647Z,100508.28
2023-01-13T11:53:59.883Z,100499.47
2023-01-13T11:56:51.601Z,100485.31
2023-01-13T11:59:40.942Z,100474.72
2023-01-13T12:02:23.062Z,100471.19
2023-01-13T12:05:00.172Z,100455.28
2023-01-13T12:07:43.492Z,100454.38
2023-01-13T12:10:26.000Z,100452.63
2023-01-13T12:13:01.798Z,100442.88
2023-01-13T12:15:41.846Z,100438.59
2023-01-13T12:18:32.066Z,100437.72
2023-01-13T12:21:21.639Z,100441.38
2023-01-13T12:24:05.206Z,100424.44
2023-01-13T12:26:37.068Z,100434.09
2023-01-13T12:29:08.530Z,100431.13
2023-01-13T12:31:39.690Z,100433.28
2023-01-13T12:34:35.187Z,100428.81
2023-01-13T12:37:11.131Z,100438.69
2023-01-13T12:39:51.765Z,100446.94
2023-01-13T12:42:43.510Z,100446.19
2023-01-13T12:45:26.972Z,100442.44
2023-01-13T12:47:55.870Z,100443.50
2023-01-13T12:50:44.084Z,100434.81
2023-01-13T12:53:36.307Z,100434.34
2023-01-13T12:56:40.704Z,100437.56
2023-01-13T12:59:50.913Z,100424.91
2023-01-13T13:02:43.794Z,100425.75
2023-01-13T13:05:40.926Z,100429.41
2023-01-13T13:08:18.872Z,100435.63
2023-01-13T13:11:03.017Z,100432.22
2023-01-13T13:13:45.263Z,100443.91
2023-01-13T13:16:52.261Z,100442.19
2023-01-13T13:19:49.255Z,100445.94
2023-01-13T13:22:20.003Z,100454.09
2023-01-13T13:25:21.012Z,100453.34
2023-01-13T13:28:00.184Z,100445.53
2023-01-13T13:30:34.866Z,100450.25
2023-01-13T13:33:26.035Z,100454.75
2023-01-13T13:36:10.516Z,100447.91
2023-01-13T13:39:28.984Z,100444.47
2023-01-13T13:42:28.371Z,100435.66
2023-01-13T13:45:14.864Z,100437.59
2023-01-13T13:47:44.375Z,100444.91
2023-01-13T13:50:16.636Z,100447.69
2023-01-13T13:52:54.367Z,100445.13
2023-01-13T13:55:25.139Z,100445.31
2023-01-13T13:57:55.944Z,100450.91
2023-01-13T14:00:27.035Z,100462.50
2023-01-13T14:03:00.550Z,100460.88
2023-01-13T14:05:29.767Z,100466.25
2023-01-13T14:08:02.872Z,100470.94
2023-01-13T14:10:31.821Z,100472.78
2023-01-13T14:13:01.685Z,100468.59
2023-01-13T14:15:34.176Z,100473.00
2023-01-13T14:18:06.836Z,100473.09
2023-01-13T14:20:36.929Z,100474.19
2023-01-13T14:23:06.605Z,100475.91
2023-01-13T14:25:39.729Z,100471.69
2023-01-13T14:28:18.481Z,100469.97
2023-01-13T14:30:47.052Z,100464.72
2023-01-13T14:33:19.174Z,100461.19
2023-01-13T14:36:15.443Z,100460.56
2023-01-13T14:38:45.639Z,100457.09
2023-01-13T14:41:22.566Z,100452.72
2023-01-13T14:43:54.171Z,100463.53
2023-01-13T14:46:25.107Z,100459.16
2023-01-13T14:49:01.669Z,100471.69
2023-01-13T14:51:31.424Z,100480.81
2023-01-13T14:53:59.861Z,100479.09
2023-01-13T14:56:53.881Z,100480.06
2023-01-13T14:59:42.985Z,100483.69
2023-01-13T15:02:42.776Z,100479.38
2023-01-13T15:05:32.240Z,100474.03
2023-01-13T15:08:05.375Z,100472.31
2023-01-13T15:10:34.664Z,100468.03
2023-01-13T15:13:05.347Z,100462.78
2023-01-13T15:15:35.829Z,100465.56
2023-01-13T15:18:12.137Z,100464.69
2023-01-13T15:20:42.837Z,100459.44
2023-01-13T15:23:11.709Z,100471.00
2023-01-13T15:25:41.409Z,100467.59
2023-01-13T15:28:18.820Z,100466.84
2023-01-13T15:30:47.591Z,100468.66
2023-01-13T15:33:16.349Z,100459.88
2023-01-13T15:35:49.127Z,100469.75
2023-01-13T15:38:19.391Z,100471.56
2023-01-13T15:40:48.733Z,100462.75
2023-01-13T15:43:36.272Z,100471.63
2023-01-13T15:46:33.685Z,100474.41
2023-01-13T15:49:08.748Z,100470.00
2023-01-13T15:51:38.892Z,100470.97
2023-01-13T15:54:07.541Z,100478.13
2023-01-13T15:56:37.424Z,100483.59
2023-01-13T15:59:06.216Z,100480.06
2023-01-13T16:01:34.350Z,100485.44
2023-01-13T16:04:02.667Z,100479.31
2023-01-13T16:06:33.250Z,100478.47
2023-01-13T16:09:03.716Z,100487.44
2023-01-13T16:11:32.079Z,100479.41
2023-01-13T16:14:00.330Z,100482.06
2023-01-13T16:16:29.741Z,100476.72
2023-01-13T16:18:58.375Z,100473.09
2023-01-13T16:21:26.582Z,100480.72
2023-01-13T16:23:54.766Z,100485.38
2023-01-13T16:26:26.077Z,100483.69
2023-01-13T16:28:56.129Z,100473.09
2023-01-13T16:31:26.848Z,100478.34
2023-01-13T16:33:55.265Z,100482.00
2023-01-13T16:36:23.869Z,100480.31
2023-01-13T16:38:53.595Z,100473.22
2023-01-13T16:41:24.902Z,100482.19
2023-01-13T16:43:53.418Z,100474.47
2023-01-13T16:46:25.005Z,100469.41
2023-01-13T16:48:54.536Z,100477.00
2023-01-13T16:51:23.458Z,100463.38
2023-01-13T16:53:52.126Z,100456.19
2023-01-13T16:56:26.488Z,100456.19
2023-01-13T16:58:56.815Z,100451.69
2023-01-13T17:01:27.192Z,100453.50
2023-01-13T17:03:56.224Z,100458.75
2023-01-13T17:06:28.638Z,100458.75
2023-01-13T17:09:01.633Z,100457.59
2023-01-13T17:11:31.493Z,100459.09
2023-01-13T17:14:00.124Z,100465.81
2023-01-13T17:16:28.398Z,100483.19
2023-01-13T17:18:56.686Z,100470.06
2023-01-13T17:21:24.966Z,100461.47
2023-01-13T17:23:53.585Z,100468.19
2023-01-13T17:26:37.156Z,100483.75
2023-01-13T17:29:07.301Z,100486.72
2023-01-13T17:31:36.770Z,100486.22
2023-01-13T17:34:06.064Z,100486.41
2023-01-13T17:36:34.817Z,100476.91
2023-01-13T17:39:02.919Z,100478.16
2023-01-13T17:41:32.721Z,100484.03
2023-01-13T17:44:00.913Z,100487.84
2023-01-13T17:46:29.181Z,100482.88
2023-01-13T17:48:57.371Z,100485.69
2023-01-13T17:51:26.152Z,100492.13
2023-01-13T17:53:54.875Z,100496.03
2023-01-13T17:56:25.225Z,100501.69
2023-01-13T17:58:55.265Z,100493.88
2023-01-13T18:01:26.630Z,100490.69
2023-01-13T18:03:55.131Z,100491.94
2023-01-13T18:06:24.765Z,100487.88
2023-01-13T18:08:53.638Z,100488.25
2023-01-13T18:11:23.402Z,100496.06
2023-01-13T18:13:55.066Z,100493.28
2023-01-13T18:16:26.676Z,100492.16
2023-01-13T18:19:16.069Z,100499.13
2023-01-13T18:22:01.938Z,100503.53
2023-01-13T18:24:47.460Z,100510.53
2023-01-13T18:27:23.591Z,100507.59
2023-01-13T18:29:55.798Z,100496.69
2023-01-13T18:32:32.699Z,100508.06
2023-01-13T18:35:06.184Z,100507.56
2023-01-13T18:37:38.486Z,100507.31
2023-01-13T18:40:12.011Z,100506.84
2023-01-13T18:42:59.185Z,100504.59
2023-01-13T18:45:29.965Z,100506.94
2023-01-13T18:48:01.677Z,100514.66
2023-01-13T18:50:31.262Z,100511.63
2023-01-13T18:52:59.445Z,100512.94
2023-01-13T18:55:28.643Z,100512.66
2023-01-13T18:58:00.616Z,100513.84
2023-01-13T19:00:31.112Z,100517.22
2023-01-13T19:05:36.117Z,100513.75
2023-01-13T19:08:04.660Z,100517.16
2023-01-13T19:10:32.956Z,100524.25
2023-01-13T19:13:02.241Z,100516.19
2023-01-13T19:15:30.571Z,100522.56
2023-01-13T19:18:00.397Z,100512.53
2023-01-13T19:20:28.750Z,100521.34
2023-01-13T19:22:56.907Z,100522.31
2023-01-13T19:25:25.349Z,100525.00
2023-01-13T19:27:53.553Z,100532.13
2023-01-13T19:30:22.929Z,100531.84
2023-01-13T19:32:51.546Z,100542.25
2023-01-13T19:35:21.555Z,100542.00
2023-01-13T19:37:50.323Z,100539.88
2023-01-13T19:40:20.462Z,100542.34
2023-01-13T19:43:06.268Z,100552.72
2023-01-13T19:45:36.233Z,100547.91
2023-01-13T19:48:05.435Z,100556.53
2023-01-13T19:50:39.590Z,100562.34
2023-01-13T19:53:15.521Z,100561.84
2023-01-13T19:55:45.659Z,100564.03
2023-01-13T19:58:14.014Z,100581.38
2023-01-13T20:00:47.132Z,100586.53
2023-01-13T20:03:15.778Z,100595.94
2023-01-13T20:05:45.603Z,100601.94
2023-01-13T20:08:13.833Z,100606.34
2023-01-13T20:10:42.837Z,100601.69
2023-01-13T20:13:11.008Z,100597.00
2023-01-13T20:15:39.722Z,100587.91
2023-01-13T20:18:08.899Z,100594.91
2023-01-13T20:20:40.548Z,100584.97
2023-01-13T20:23:10.579Z,100571.59
2023-01-13T20:25:43.047Z,100561.66
2023-01-13T20:28:11.517Z,100592.06
2023-01-13T20:30:42.567Z,100579.84
2023-01-13T20:33:16.189Z,100572.38
2023-01-13T20:35:45.282Z,100564.00
2023-01-13T20:38:16.223Z,100554.50
2023-01-13T20:40:44.766Z,100558.78
2023-01-13T20:43:11.867Z,100558.34
2023-01-13T20:45:40.539Z,100555.41
2023-01-13T20:48:08.753Z,100556.69
2023-01-13T20:50:37.753Z,100558.16
2023-01-13T20:53:06.324Z,100559.28
2023-01-13T20:55:36.053Z,100575.16
2023-01-13T20:58:04.528Z,100579.88
2023-01-13T21:00:33.355Z,100579.06
2023-01-13T21:03:01.492Z,100591.56
2023-01-13T21:05:29.762Z,100593.41
2023-01-13T21:07:58.117Z,100604.38
2023-01-13T21:10:27.067Z,100593.81
2023-01-13T21:13:13.905Z,100585.28
2023-01-13T21:15:46.953Z,100583.09
2023-01-13T21:18:32.634Z,100578.09
2023-01-13T21:21:11.647Z,100572.38
2023-01-13T21:23:40.979Z,100570.19
2023-01-13T21:26:09.411Z,100560.94
2023-01-13T21:28:39.540Z,100567.72
2023-01-13T21:31:10.428Z,100558.44
2023-01-13T21:33:38.983Z,100558.00
2023-01-13T21:36:08.228Z,100558.53
2023-01-13T21:38:36.424Z,100540.06
2023-01-13T21:41:06.335Z,100547.81
2023-01-13T21:44:01.351Z,100534.84
2023-01-13T21:46:48.241Z,100534.53
2023-01-13T21:49:16.585Z,100547.56
2023-01-13T21:51:46.663Z,100543.53
2023-01-13T21:54:14.789Z,100549.47
2023-01-13T21:56:42.993Z,100537.34
2023-01-13T21:59:11.179Z,100521.56
2023-01-13T22:02:15.728Z,100510.41
2023-01-13T22:04:28.922Z,100515.38
2023-01-13T22:06:59.821Z,100514.31
2023-01-13T22:09:28.093Z,100532.34
2023-01-13T22:11:56.421Z,100541.69
2023-01-13T22:14:25.366Z,100555.69
2023-01-13T22:16:56.828Z,100576.78
2023-01-13T22:19:25.113Z,100594.31
2023-01-13T22:21:53.391Z,100606.47
2023-01-13T22:24:21.534Z,100617.72
2023-01-13T22:26:49.688Z,100632.59
2023-01-13T22:29:17.999Z,100625.84
2023-01-13T22:31:46.145Z,100627.31
2023-01-13T22:34:15.712Z,100636.63
2023-01-13T22:36:43.843Z,100646.91
2023-01-13T22:39:12.375Z,100643.72
2023-01-13T22:41:40.667Z,100654.81
2023-01-13T22:44:08.828Z,100642.72
2023-01-13T22:46:36.880Z,100652.84
2023-01-13T22:49:04.980Z,100650.78
2023-01-13T22:51:34.567Z,100653.56
2023-01-13T22:54:02.853Z,100651.25
2023-01-13T22:56:31.131Z,100654.28
2023-01-13T22:59:01.264Z,100645.59
2023-01-13T23:01:31.372Z,100645.97
2023-01-13T23:04:00.282Z,100639.97
2023-01-13T23:06:30.329Z,100627.72
2023-01-13T23:09:00.198Z,100616.44
2023-01-13T23:11:30.340Z,100614.00
2023-01-13T23:14:00.489Z,100608.09
2023-01-13T23:16:29.844Z,100593.19
2023-01-13T23:18:58.024Z,100584.50
2023-01-13T23:21:28.870Z,100582.03
2023-01-13T23:23:58.676Z,100560.88
2023-01-13T23:26:29.916Z,100563.81
2023-01-13T23:28:59.955Z,100568.56
2023-01-13T23:31:28.405Z,100578.72
2023-01-13T23:33:56.677Z,100571.84
2023-01-13T23:36:27.264Z,100574.78
2023-01-13T23:38:55.908Z,100579.41
2023-01-13T23:41:26.111Z,100567.16
2023-01-13T23:43:57.028Z,100572.78
2023-01-13T23:46:25.967Z,100573.88
2023-01-13T23:48:55.342Z,100579.50
2023-01-13T23:51:26.026Z,100573.44
2023-01-13T23:53:55.387Z,100571.00
2023-01-13T23:56:25.414Z,100567.66
2023-01-13T23:58:55.943Z,100561.69
